sensor_id;sensor_type;location;lat;lon;timestamp;pressure;altitude;pressure_sealevel;temperature;humidity
26489;BME280;14169;43.684;10.484;2022-09-09T00:04:05;101159.72;;;23.33;100.00
26489;BME280;14169;43.684;10.484;2022-09-09T00:06:46;101154.16;;;23.36;100.00
26489;BME280;14169;43.684;10.484;2022-09-09T00:09:17;101149.69;;;23.36;100.00
26489;BME280;14169;43.684;10.484;2022-09-09T00:11:43;101146.69;;;23.41;100.00
26489;BME280;14169;43.684;10.484;2022-09-09T00:14:17;101148.13;;;23.45;100.00
26489;BME280;14169;43.684;10.484;2022-09-09T00:16:47;101145.56;;;23.43;100.00
26489;BME280;14169;43.684;10.484;2022-09-09T00:19:20;101144.03;;;23.41;100.00
26489;BME280;14169;43.684;10.484;2022-09-09T00:22:02;101143.88;;;23.42;100.00
26489;BME280;14169;43.684;10.484;2022-09-09T00:24:32;101142.31;;;23.40;100.00
26489;BME280;14169;43.684;10.484;2022-09-09T00:27:01;101140.25;;;23.43;100.00
26489;BME280;14169;43.684;10.484;2022-09-09T00:32:11;101140.50;;;23.40;100.00
26489;BME280;14169;43.684;10.484;2022-09-09T00:34:46;101135.06;;;23.42;100.00
26489;BME280;14169;43.684;10.484;2022-09-09T00:37:11;101133.38;;;23.41;100.00
26489;BME280;14169;43.684;10.484;2022-09-09T00:39:37;101133.59;;;23.38;100.00
26489;BME280;14169;43.684;10.484;2022-09-09T00:44:30;101130.00;;;23.39;100.00
26489;BME280;14169;43.684;10.484;2022-09-09T00:49:43;101127.81;;;23.33;100.00
26489;BME280;14169;43.684;10.484;2022-09-09T01:02:21;101111.75;;;23.23;100.00
26489;BME280;14169;43.684;10.484;2022-09-09T01:04:50;101105.81;;;23.20;100.00
26489;BME280;14169;43.684;10.484;2022-09-09T01:07:16;101100.88;;;23.15;100.00
26489;BME280;14169;43.684;10.484;2022-09-09T01:12:15;101112.06;;;23.08;100.00
26489;BME280;14169;43.684;10.484;2022-09-09T01:14:48;101110.75;;;23.02;100.00
26489;BME280;14169;43.684;10.484;2022-09-09T01:25:26;101113.16;;;22.94;100.00
26489;BME280;14169;43.684;10.484;2022-09-09T01:27:43;101108.69;;;22.95;100.00
26489;BME280;14169;43.684;10.484;2022-09-09T01:30:10;101112.31;;;22.94;100.00
26489;BME280;14169;43.684;10.484;2022-09-09T01:35:06;101099.09;;;22.92;100.00
26489;BME280;14169;43.684;10.484;2022-09-09T01:37:32;101103.69;;;22.90;100.00
26489;BME280;14169;43.684;10.484;2022-09-09T01:39:58;101106.34;;;22.90;100.00
26489;BME280;14169;43.684;10.484;2022-09-09T01:42:23;101100.56;;;22.85;100.00
26489;BME280;14169;43.684;10.484;2022-09-09T01:44:48;101097.19;;;22.83;100.00
26489;BME280;14169;43.684;10.484;2022-09-09T01:47:14;101100.78;;;22.82;100.00
26489;BME280;14169;43.684;10.484;2022-09-09T01:49:40;101096.31;;;22.83;100.00
26489;BME280;14169;43.684;10.484;2022-09-09T01:52:05;101094.25;;;22.86;100.00
26489;BME280;14169;43.684;10.484;2022-09-09T01:54:31;101095.84;;;22.89;100.00
26489;BME280;14169;43.684;10.484;2022-09-09T01:57:15;101090.53;;;22.89;100.00
26489;BME280;14169;43.684;10.484;2022-09-09T02:02:27;101096.44;;;22.81;100.00
26489;BME280;14169;43.684;10.484;2022-09-09T02:07:42;101100.53;;;22.74;100.00
26489;BME280;14169;43.684;10.484;2022-09-09T02:12:41;101101.19;;;22.54;100.00
26489;BME280;14169;43.684;10.484;2022-09-09T02:15:09;101096.94;;;22.40;100.00
26489;BME280;14169;43.684;10.484;2022-09-09T02:17:37;101092.47;;;22.41;100.00
26489;BME280;14169;43.684;10.484;2022-09-09T02:20:07;101089.22;;;22.48;100.00
26489;BME280;14169;43.684;10.484;2022-09-09T02:22:33;101084.44;;;22.53;100.00
26489;BME280;14169;43.684;10.484;2022-09-09T02:25:01;101086.44;;;22.50;100.00
26489;BME280;14169;43.684;10.484;2022-09-09T02:27:27;101088.63;;;22.45;100.00
26489;BME280;14169;43.684;10.484;2022-09-09T02:29:53;101088.38;;;22.48;100.00
26489;BME280;14169;43.684;10.484;2022-09-09T02:32:23;101086.09;;;22.43;100.00
26489;BME280;14169;43.684;10.484;2022-09-09T02:34:53;101086.56;;;22.37;100.00
26489;BME280;14169;43.684;10.484;2022-09-09T02:37:21;101083.38;;;22.32;100.00
26489;BME280;14169;43.684;10.484;2022-09-09T02:39:50;101087.56;;;22.24;100.00
26489;BME280;14169;43.684;10.484;2022-09-09T02:42:16;101092.22;;;22.20;100.00
26489;BME280;14169;43.684;10.484;2022-09-09T02:44:41;101086.44;;;22.15;100.00
26489;BME280;14169;43.684;10.484;2022-09-09T02:50:00;101090.28;;;22.11;100.00
26489;BME280;14169;43.684;10.484;2022-09-09T02:53:15;101088.22;;;22.15;100.00
26489;BME280;14169;43.684;10.484;2022-09-09T02:55:24;101084.25;;;22.20;100.00
26489;BME280;14169;43.684;10.484;2022-09-09T02:57:51;101083.22;;;22.23;100.00
26489;BME280;14169;43.684;10.484;2022-09-09T03:00:22;101085.88;;;22.23;100.00
26489;BME280;14169;43.684;10.484;2022-09-09T03:02:49;101079.59;;;22.24;100.00
26489;BME280;14169;43.684;10.484;2022-09-09T03:05:14;101086.00;;;22.21;100.00
26489;BME280;14169;43.684;10.484;2022-09-09T03:07:39;101086.31;;;22.17;100.00
26489;BME280;14169;43.684;10.484;2022-09-09T03:10:05;101095.00;;;22.19;100.00
26489;BME280;14169;43.684;10.484;2022-09-09T03:12:30;101087.78;;;22.21;100.00
26489;BME280;14169;43.684;10.484;2022-09-09T03:14:56;101087.69;;;22.22;100.00
26489;BME280;14169;43.684;10.484;2022-09-09T03:17:21;101083.34;;;22.21;100.00
26489;BME280;14169;43.684;10.484;2022-09-09T03:19:46;101087.91;;;22.19;100.00
26489;BME280;14169;43.684;10.484;2022-09-09T03:22:14;101089.69;;;22.19;100.00
26489;BME280;14169;43.684;10.484;2022-09-09T03:24:39;101084.97;;;22.11;100.00
26489;BME280;14169;43.684;10.484;2022-09-09T03:27:05;101083.84;;;22.03;100.00
26489;BME280;14169;43.684;10.484;2022-09-09T03:29:31;101081.63;;;21.97;100.00
26489;BME280;14169;43.684;10.484;2022-09-09T03:31:56;101082.69;;;21.94;100.00
26489;BME280;14169;43.684;10.484;2022-09-09T03:34:21;101086.44;;;21.92;100.00
26489;BME280;14169;43.684;10.484;2022-09-09T03:36:47;101086.66;;;21.88;100.00
26489;BME280;14169;43.684;10.484;2022-09-09T03:39:13;101079.66;;;21.88;100.00
26489;BME280;14169;43.684;10.484;2022-09-09T03:41:39;101077.09;;;21.86;100.00
26489;BME280;14169;43.684;10.484;2022-09-09T03:44:04;101079.88;;;21.84;100.00
26489;BME280;14169;43.684;10.484;2022-09-09T03:46:29;101076.59;;;21.81;100.00
26489;BME280;14169;43.684;10.484;2022-09-09T03:48:56;101081.19;;;21.79;100.00
26489;BME280;14169;43.684;10.484;2022-09-09T03:51:22;101081.06;;;21.80;100.00
26489;BME280;14169;43.684;10.484;2022-09-09T03:53:47;101086.47;;;21.79;100.00
26489;BME280;14169;43.684;10.484;2022-09-09T03:56:12;101076.00;;;21.77;100.00
26489;BME280;14169;43.684;10.484;2022-09-09T03:58:38;101082.13;;;21.78;100.00
26489;BME280;14169;43.684;10.484;2022-09-09T04:01:04;101076.94;;;21.76;100.00
26489;BME280;14169;43.684;10.484;2022-09-09T04:03:30;101080.16;;;21.69;100.00
26489;BME280;14169;43.684;10.484;2022-09-09T04:05:56;101066.47;;;21.62;100.00
26489;BME280;14169;43.684;10.484;2022-09-09T04:08:23;101072.03;;;21.59;100.00
26489;BME280;14169;43.684;10.484;2022-09-09T04:10:51;101066.91;;;21.56;100.00
26489;BME280;14169;43.684;10.484;2022-09-09T04:13:17;101064.72;;;21.50;100.00
26489;BME280;14169;43.684;10.484;2022-09-09T04:15:43;101058.66;;;21.48;100.00
26489;BME280;14169;43.684;10.484;2022-09-09T04:18:09;101065.00;;;21.46;100.00
26489;BME280;14169;43.684;10.484;2022-09-09T04:20:34;101063.88;;;21.37;100.00
26489;BME280;14169;43.684;10.484;2022-09-09T04:23:00;101066.22;;;21.42;100.00
26489;BME280;14169;43.684;10.484;2022-09-09T04:25:25;101066.91;;;21.44;100.00
26489;BME280;14169;43.684;10.484;2022-09-09T04:27:54;101071.00;;;21.49;100.00
26489;BME280;14169;43.684;10.484;2022-09-09T04:30:20;101078.22;;;21.47;100.00
26489;BME280;14169;43.684;10.484;2022-09-09T04:32:46;101077.44;;;21.33;100.00
26489;BME280;14169;43.684;10.484;2022-09-09T04:35:11;101076.41;;;21.23;100.00
26489;BME280;14169;43.684;10.484;2022-09-09T04:37:36;101058.91;;;21.20;100.00
26489;BME280;14169;43.684;10.484;2022-09-09T04:40:01;101059.16;;;21.17;100.00
26489;BME280;14169;43.684;10.484;2022-09-09T04:42:27;101058.91;;;21.20;100.00
26489;BME280;14169;43.684;10.484;2022-09-09T04:44:52;101066.66;;;21.23;100.00
26489;BME280;14169;43.684;10.484;2022-09-09T04:47:19;101062.97;;;21.26;100.00
26489;BME280;14169;43.684;10.484;2022-09-09T04:49:44;101059.34;;;21.27;100.00
26489;BME280;14169;43.684;10.484;2022-09-09T04:52:09;101062.72;;;21.29;100.00
26489;BME280;14169;43.684;10.484;2022-09-09T04:54:35;101063.91;;;21.25;100.00
26489;BME280;14169;43.684;10.484;2022-09-09T04:57:00;101064.53;;;21.28;100.00
26489;BME280;14169;43.684;10.484;2022-09-09T04:59:25;101057.97;;;21.34;100.00
26489;BME280;14169;43.684;10.484;2022-09-09T05:01:50;101062.28;;;21.35;100.00
26489;BME280;14169;43.684;10.484;2022-09-09T05:04:16;101064.38;;;21.42;100.00
26489;BME280;14169;43.684;10.484;2022-09-09T05:06:41;101073.53;;;21.51;100.00
26489;BME280;14169;43.684;10.484;2022-09-09T05:09:07;101067.53;;;21.60;100.00
26489;BME280;14169;43.684;10.484;2022-09-09T05:11:33;101067.84;;;21.68;100.00
26489;BME280;14169;43.684;10.484;2022-09-09T05:14:01;101067.38;;;21.74;100.00
26489;BME280;14169;43.684;10.484;2022-09-09T05:16:26;101068.84;;;21.78;100.00
26489;BME280;14169;43.684;10.484;2022-09-09T05:18:51;101077.47;;;21.81;100.00
26489;BME280;14169;43.684;10.484;2022-09-09T05:21:17;101070.97;;;21.85;100.00
26489;BME280;14169;43.684;10.484;2022-09-09T05:23:42;101071.59;;;21.89;100.00
26489;BME280;14169;43.684;10.484;2022-09-09T05:26:11;101083.66;;;21.93;100.00
26489;BME280;14169;43.684;10.484;2022-09-09T05:28:37;101074.13;;;21.91;100.00
26489;BME280;14169;43.684;10.484;2022-09-09T05:31:03;101087.38;;;21.91;100.00
26489;BME280;14169;43.684;10.484;2022-09-09T05:33:30;101091.84;;;21.90;100.00
26489;BME280;14169;43.684;10.484;2022-09-09T05:35:56;101094.84;;;21.85;100.00
26489;BME280;14169;43.684;10.484;2022-09-09T05:38:21;101086.97;;;21.84;100.00
26489;BME280;14169;43.684;10.484;2022-09-09T05:40:49;101095.69;;;21.86;100.00
26489;BME280;14169;43.684;10.484;2022-09-09T05:43:15;101100.16;;;21.85;100.00
26489;BME280;14169;43.684;10.484;2022-09-09T05:45:40;101093.88;;;21.86;100.00
26489;BME280;14169;43.684;10.484;2022-09-09T05:48:05;101093.44;;;21.93;100.00
26489;BME280;14169;43.684;10.484;2022-09-09T05:50:32;101094.91;;;21.97;100.00
26489;BME280;14169;43.684;10.484;2022-09-09T05:52:57;101095.63;;;21.99;100.00
26489;BME280;14169;43.684;10.484;2022-09-09T05:55:22;101093.00;;;22.10;100.00
26489;BME280;14169;43.684;10.484;2022-09-09T05:57:48;101096.19;;;22.15;100.00
26489;BME280;14169;43.684;10.484;2022-09-09T06:00:13;101097.66;;;22.19;100.00
26489;BME280;14169;43.684;10.484;2022-09-09T06:02:40;101102.94;;;22.31;100.00
26489;BME280;14169;43.684;10.484;2022-09-09T06:05:06;101097.38;;;22.34;100.00
26489;BME280;14169;43.684;10.484;2022-09-09T06:07:33;101091.41;;;22.43;100.00
26489;BME280;14169;43.684;10.484;2022-09-09T06:09:58;101099.25;;;22.56;100.00
26489;BME280;14169;43.684;10.484;2022-09-09T06:12:25;101103.56;;;22.69;100.00
26489;BME280;14169;43.684;10.484;2022-09-09T06:14:50;101098.38;;;22.79;100.00
26489;BME280;14169;43.684;10.484;2022-09-09T06:17:16;101108.28;;;22.88;100.00
26489;BME280;14169;43.684;10.484;2022-09-09T06:19:42;101100.00;;;22.93;100.00
26489;BME280;14169;43.684;10.484;2022-09-09T06:22:07;101113.19;;;23.05;100.00
26489;BME280;14169;43.684;10.484;2022-09-09T06:24:32;101117.06;;;23.23;100.00
26489;BME280;14169;43.684;10.484;2022-09-09T06:26:58;101119.34;;;23.39;100.00
26489;BME280;14169;43.684;10.484;2022-09-09T06:29:23;101112.56;;;23.57;100.00
26489;BME280;14169;43.684;10.484;2022-09-09T06:31:48;101121.41;;;23.69;100.00
26489;BME280;14169;43.684;10.484;2022-09-09T06:34:14;101122.97;;;23.82;100.00
26489;BME280;14169;43.684;10.484;2022-09-09T06:36:39;101132.38;;;23.97;100.00
26489;BME280;14169;43.684;10.484;2022-09-09T06:39:05;101140.56;;;24.05;100.00
26489;BME280;14169;43.684;10.484;2022-09-09T06:41:32;101136.78;;;24.19;100.00
26489;BME280;14169;43.684;10.484;2022-09-09T06:43:58;101154.66;;;24.28;100.00
26489;BME280;14169;43.684;10.484;2022-09-09T06:46:24;101156.22;;;24.42;100.00
26489;BME280;14169;43.684;10.484;2022-09-09T06:48:53;101163.38;;;24.62;100.00
26489;BME280;14169;43.684;10.484;2022-09-09T06:51:20;101165.34;;;24.60;100.00
26489;BME280;14169;43.684;10.484;2022-09-09T06:53:46;101169.84;;;24.59;100.00
26489;BME280;14169;43.684;10.484;2022-09-09T06:56:20;101178.22;;;24.55;100.00
26489;BME280;14169;43.684;10.484;2022-09-09T06:58:48;101184.84;;;24.60;100.00
26489;BME280;14169;43.684;10.484;2022-09-09T07:01:15;101182.03;;;24.62;100.00
26489;BME280;14169;43.684;10.484;2022-09-09T07:03:41;101173.94;;;24.63;100.00
26489;BME280;14169;43.684;10.484;2022-09-09T07:06:13;101178.06;;;24.56;100.00
26489;BME280;14169;43.684;10.484;2022-09-09T07:08:39;101182.91;;;24.62;100.00
26489;BME280;14169;43.684;10.484;2022-09-09T07:11:06;101176.59;;;24.63;100.00
26489;BME280;14169;43.684;10.484;2022-09-09T07:13:32;101191.16;;;24.80;100.00
26489;BME280;14169;43.684;10.484;2022-09-09T07:16:07;101192.56;;;24.95;100.00
26489;BME280;14169;43.684;10.484;2022-09-09T07:18:33;101194.47;;;25.04;100.00
26489;BME280;14169;43.684;10.484;2022-09-09T07:20:59;101206.19;;;25.12;100.00
26489;BME280;14169;43.684;10.484;2022-09-09T07:23:25;101209.09;;;25.09;100.00
26489;BME280;14169;43.684;10.484;2022-09-09T07:25:51;101213.50;;;24.99;100.00
26489;BME280;14169;43.684;10.484;2022-09-09T07:28:17;101211.97;;;24.97;100.00
26489;BME280;14169;43.684;10.484;2022-09-09T07:30:42;101211.44;;;25.03;100.00
26489;BME280;14169;43.684;10.484;2022-09-09T07:33:07;101220.03;;;25.06;100.00
26489;BME280;14169;43.684;10.484;2022-09-09T07:35:34;101236.94;;;25.16;100.00
26489;BME280;14169;43.684;10.484;2022-09-09T07:38:03;101244.09;;;25.37;100.00
26489;BME280;14169;43.684;10.484;2022-09-09T07:40:32;101228.31;;;25.54;100.00
26489;BME280;14169;43.684;10.484;2022-09-09T07:42:57;101222.09;;;25.65;100.00
26489;BME280;14169;43.684;10.484;2022-09-09T07:45:23;101219.69;;;25.62;100.00
26489;BME280;14169;43.684;10.484;2022-09-09T07:47:48;101211.06;;;25.58;100.00
26489;BME280;14169;43.684;10.484;2022-09-09T07:50:13;101212.53;;;25.62;100.00
26489;BME280;14169;43.684;10.484;2022-09-09T07:52:39;101210.38;;;25.86;100.00
26489;BME280;14169;43.684;10.484;2022-09-09T07:55:04;101209.69;;;25.94;100.00
26489;BME280;14169;43.684;10.484;2022-09-09T07:57:30;101199.19;;;26.12;100.00
26489;BME280;14169;43.684;10.484;2022-09-09T07:59:56;101206.13;;;26.24;100.00
26489;BME280;14169;43.684;10.484;2022-09-09T08:02:22;101240.78;;;26.35;100.00
26489;BME280;14169;43.684;10.484;2022-09-09T08:04:48;101233.31;;;26.38;100.00
26489;BME280;14169;43.684;10.484;2022-09-09T08:07:13;101215.84;;;26.25;100.00
26489;BME280;14169;43.684;10.484;2022-09-09T08:09:39;101232.75;;;26.35;100.00
26489;BME280;14169;43.684;10.484;2022-09-09T08:12:04;101229.22;;;26.34;100.00
26489;BME280;14169;43.684;10.484;2022-09-09T08:14:31;101226.72;;;26.61;100.00
26489;BME280;14169;43.684;10.484;2022-09-09T08:16:56;101221.50;;;26.69;100.00
26489;BME280;14169;43.684;10.484;2022-09-09T08:19:22;101225.31;;;26.76;100.00
26489;BME280;14169;43.684;10.484;2022-09-09T08:21:48;101228.25;;;26.83;100.00
26489;BME280;14169;43.684;10.484;2022-09-09T08:24:14;101220.41;;;26.91;100.00
26489;BME280;14169;43.684;10.484;2022-09-09T08:26:43;101227.59;;;26.91;100.00
26489;BME280;14169;43.684;10.484;2022-09-09T08:29:09;101223.81;;;27.03;100.00
26489;BME280;14169;43.684;10.484;2022-09-09T08:31:36;101236.34;;;26.93;100.00
26489;BME280;14169;43.684;10.484;2022-09-09T08:34:03;101258.16;;;26.88;100.00
26489;BME280;14169;43.684;10.484;2022-09-09T08:36:29;101236.59;;;26.90;100.00
26489;BME280;14169;43.684;10.484;2022-09-09T08:38:56;101294.03;;;26.95;100.00
26489;BME280;14169;43.684;10.484;2022-09-09T08:41:30;101238.16;;;27.02;100.00
26489;BME280;14169;43.684;10.484;2022-09-09T08:46:32;101236.09;;;27.42;100.00
26489;BME280;14169;43.684;10.484;2022-09-09T08:49:24;101240.31;;;27.35;100.00
26489;BME280;14169;43.684;10.484;2022-09-09T08:51:51;101237.81;;;27.33;100.00
26489;BME280;14169;43.684;10.484;2022-09-09T08:54:18;101252.75;;;27.45;100.00
26489;BME280;14169;43.684;10.484;2022-09-09T08:56:44;101264.69;;;27.41;100.00
26489;BME280;14169;43.684;10.484;2022-09-09T08:59:09;101246.53;;;27.45;100.00
26489;BME280;14169;43.684;10.484;2022-09-09T09:09:03;101260.69;;;27.09;100.00
26489;BME280;14169;43.684;10.484;2022-09-09T09:11:34;101254.63;;;27.16;100.00
26489;BME280;14169;43.684;10.484;2022-09-09T09:14:01;101270.94;;;27.13;100.00
26489;BME280;14169;43.684;10.484;2022-09-09T09:18:57;101266.09;;;27.64;100.00
26489;BME280;14169;43.684;10.484;2022-09-09T09:23:59;101232.22;;;27.73;100.00
26489;BME280;14169;43.684;10.484;2022-09-09T09:26:25;101252.41;;;27.67;100.00
26489;BME280;14169;43.684;10.484;2022-09-09T09:28:53;101239.97;;;27.76;100.00
26489;BME280;14169;43.684;10.484;2022-09-09T09:31:21;101253.22;;;27.78;100.00
26489;BME280;14169;43.684;10.484;2022-09-09T09:33:48;101269.00;;;27.81;100.00
26489;BME280;14169;43.684;10.484;2022-09-09T09:36:14;101254.91;;;27.69;100.00
26489;BME280;14169;43.684;10.484;2022-09-09T09:38:51;101254.91;;;27.79;100.00
26489;BME280;14169;43.684;10.484;2022-09-09T09:41:17;101250.63;;;27.86;100.00
26489;BME280;14169;43.684;10.484;2022-09-09T09:43:54;101256.78;;;27.96;100.00
26489;BME280;14169;43.684;10.484;2022-09-09T09:46:20;101269.44;;;28.13;100.00
26489;BME280;14169;43.684;10.484;2022-09-09T09:49:01;101252.72;;;28.28;100.00
26489;BME280;14169;43.684;10.484;2022-09-09T09:51:27;101257.16;;;28.37;100.00
26489;BME280;14169;43.684;10.484;2022-09-09T09:53:53;101257.34;;;28.54;100.00
26489;BME280;14169;43.684;10.484;2022-09-09T09:56:26;101249.91;;;28.47;100.00
26489;BME280;14169;43.684;10.484;2022-09-09T09:58:51;101257.66;;;28.51;100.00
26489;BME280;14169;43.684;10.484;2022-09-09T10:01:28;101242.22;;;28.35;100.00
26489;BME280;14169;43.684;10.484;2022-09-09T10:03:58;101272.13;;;28.40;100.00
26489;BME280;14169;43.684;10.484;2022-09-09T10:06:34;101253.94;;;28.34;100.00
26489;BME280;14169;43.684;10.484;2022-09-09T10:08:59;101237.88;;;28.52;100.00
26489;BME280;14169;43.684;10.484;2022-09-09T10:19:07;101245.00;;;28.61;100.00
26489;BME280;14169;43.684;10.484;2022-09-09T10:26:51;101231.34;;;29.07;100.00
26489;BME280;14169;43.684;10.484;2022-09-09T10:29:36;101236.19;;;29.03;100.00
26489;BME280;14169;43.684;10.484;2022-09-09T10:34:55;101232.03;;;29.26;100.00
26489;BME280;14169;43.684;10.484;2022-09-09T10:39:49;101237.91;;;29.48;100.00
26489;BME280;14169;43.684;10.484;2022-09-09T10:42:18;101234.63;;;29.62;100.00
26489;BME280;14169;43.684;10.484;2022-09-09T10:47:21;101217.66;;;29.61;100.00
26489;BME280;14169;43.684;10.484;2022-09-09T10:50:01;101216.66;;;29.62;100.00
26489;BME280;14169;43.684;10.484;2022-09-09T10:52:43;101222.19;;;29.94;100.00
26489;BME280;14169;43.684;10.484;2022-09-09T10:57:48;101220.78;;;29.74;100.00
26489;BME280;14169;43.684;10.484;2022-09-09T11:00:16;101220.09;;;29.72;100.00
26489;BME280;14169;43.684;10.484;2022-09-09T11:02:42;101224.88;;;29.61;100.00
26489;BME280;14169;43.684;10.484;2022-09-09T11:07:59;101227.16;;;29.48;100.00
26489;BME280;14169;43.684;10.484;2022-09-09T11:13:05;101215.94;;;30.28;100.00
26489;BME280;14169;43.684;10.484;2022-09-09T11:15:35;101225.22;;;30.33;100.00
26489;BME280;14169;43.684;10.484;2022-09-09T11:18:01;101222.66;;;30.24;100.00
26489;BME280;14169;43.684;10.484;2022-09-09T11:20:29;101215.84;;;30.45;100.00
26489;BME280;14169;43.684;10.484;2022-09-09T11:25:21;101219.00;;;30.33;100.00
26489;BME280;14169;43.684;10.484;2022-09-09T11:30:22;101216.28;;;29.57;100.00
26489;BME280;14169;43.684;10.484;2022-09-09T11:40:30;101206.13;;;29.43;100.00
26489;BME280;14169;43.684;10.484;2022-09-09T11:43:03;101213.13;;;29.10;100.00
26489;BME280;14169;43.684;10.484;2022-09-09T11:45:31;101223.78;;;28.85;100.00
26489;BME280;14169;43.684;10.484;2022-09-09T11:47:59;101234.25;;;28.43;100.00
26489;BME280;14169;43.684;10.484;2022-09-09T11:52:50;101230.69;;;29.48;100.00
26489;BME280;14169;43.684;10.484;2022-09-09T11:55:26;101236.41;;;29.27;100.00
26489;BME280;14169;43.684;10.484;2022-09-09T12:00:31;101232.81;;;29.19;100.00
26489;BME280;14169;43.684;10.484;2022-09-09T12:02:58;101241.13;;;28.73;100.00
26489;BME280;14169;43.684;10.484;2022-09-09T12:05:23;101244.28;;;28.68;100.00
26489;BME280;14169;43.684;10.484;2022-09-09T12:08:00;101247.44;;;29.42;100.00
26489;BME280;14169;43.684;10.484;2022-09-09T12:10:35;101227.25;;;29.97;100.00
26489;BME280;14169;43.684;10.484;2022-09-09T12:13:20;101231.16;;;29.44;100.00
26489;BME280;14169;43.684;10.484;2022-09-09T12:15:48;101221.28;;;30.11;100.00
26489;BME280;14169;43.684;10.484;2022-09-09T12:18:15;101230.97;;;30.04;100.00
26489;BME280;14169;43.684;10.484;2022-09-09T12:23:37;101229.63;;;30.34;100.00
26489;BME280;14169;43.684;10.484;2022-09-09T12:26:07;101238.53;;;30.01;100.00
26489;BME280;14169;43.684;10.484;2022-09-09T12:28:49;101236.97;;;29.90;100.00
26489;BME280;14169;43.684;10.484;2022-09-09T12:31:21;101245.59;;;29.68;100.00
26489;BME280;14169;43.684;10.484;2022-09-09T12:33:49;101237.22;;;29.02;100.00
26489;BME280;14169;43.684;10.484;2022-09-09T12:36:16;101251.09;;;28.63;100.00
26489;BME280;14169;43.684;10.484;2022-09-09T12:38:44;101247.88;;;28.77;100.00
26489;BME280;14169;43.684;10.484;2022-09-09T12:41:19;101235.59;;;29.78;100.00
26489;BME280;14169;43.684;10.484;2022-09-09T12:43:45;101237.47;;;29.17;100.00
26489;BME280;14169;43.684;10.484;2022-09-09T12:46:13;101240.25;;;29.07;100.00
26489;BME280;14169;43.684;10.484;2022-09-09T12:48:43;101228.63;;;29.42;100.00
26489;BME280;14169;43.684;10.484;2022-09-09T12:54:12;101232.00;;;30.61;100.00
26489;BME280;14169;43.684;10.484;2022-09-09T12:56:39;101235.00;;;30.42;100.00
26489;BME280;14169;43.684;10.484;2022-09-09T12:59:04;101229.84;;;30.15;100.00
26489;BME280;14169;43.684;10.484;2022-09-09T13:01:30;101230.16;;;30.04;100.00
26489;BME280;14169;43.684;10.484;2022-09-09T13:03:56;101223.16;;;30.27;100.00
26489;BME280;14169;43.684;10.484;2022-09-09T13:06:25;101227.69;;;30.27;100.00
26489;BME280;14169;43.684;10.484;2022-09-09T13:08:51;101218.78;;;29.84;100.00
26489;BME280;14169;43.684;10.484;2022-09-09T13:11:18;101219.56;;;30.68;100.00
26489;BME280;14169;43.684;10.484;2022-09-09T13:13:49;101216.09;;;31.00;100.00
26489;BME280;14169;43.684;10.484;2022-09-09T13:16:19;101215.88;;;30.69;100.00
26489;BME280;14169;43.684;10.484;2022-09-09T13:18:45;101197.91;;;31.02;100.00
26489;BME280;14169;43.684;10.484;2022-09-09T13:21:11;101211.47;;;31.33;100.00
26489;BME280;14169;43.684;10.484;2022-09-09T13:23:37;101222.25;;;30.44;100.00
26489;BME280;14169;43.684;10.484;2022-09-09T13:26:03;101225.56;;;30.30;100.00
26489;BME280;14169;43.684;10.484;2022-09-09T13:28:31;101204.44;;;30.75;100.00
26489;BME280;14169;43.684;10.484;2022-09-09T13:30:57;101210.47;;;30.53;100.00
26489;BME280;14169;43.684;10.484;2022-09-09T13:33:38;101211.69;;;30.99;100.00
26489;BME280;14169;43.684;10.484;2022-09-09T13:36:07;101217.75;;;30.93;100.00
26489;BME280;14169;43.684;10.484;2022-09-09T13:38:35;101207.78;;;31.50;100.00
26489;BME280;14169;43.684;10.484;2022-09-09T13:41:05;101203.19;;;31.58;100.00
26489;BME280;14169;43.684;10.484;2022-09-09T13:43:44;101209.16;;;31.38;100.00
26489;BME280;14169;43.684;10.484;2022-09-09T13:49:00;101210.13;;;31.29;100.00
26489;BME280;14169;43.684;10.484;2022-09-09T13:51:33;101210.78;;;30.58;100.00
26489;BME280;14169;43.684;10.484;2022-09-09T13:54:00;101217.50;;;30.30;100.00
26489;BME280;14169;43.684;10.484;2022-09-09T13:56:26;101208.25;;;30.33;98.33
26489;BME280;14169;43.684;10.484;2022-09-09T13:58:51;101209.19;;;30.98;98.32
26489;BME280;14169;43.684;10.484;2022-09-09T14:01:16;101215.22;;;31.08;91.61
26489;BME280;14169;43.684;10.484;2022-09-09T14:03:41;101215.53;;;31.37;95.53
26489;BME280;14169;43.684;10.484;2022-09-09T14:06:08;101209.81;;;31.48;100.00
26489;BME280;14169;43.684;10.484;2022-09-09T14:08:34;101220.19;;;31.59;100.00
26489;BME280;14169;43.684;10.484;2022-09-09T14:11:02;101217.38;;;31.44;100.00
26489;BME280;14169;43.684;10.484;2022-09-09T14:13:28;101207.44;;;31.45;100.00
26489;BME280;14169;43.684;10.484;2022-09-09T14:15:53;101215.72;;;31.35;97.45
26489;BME280;14169;43.684;10.484;2022-09-09T14:18:21;101206.59;;;31.44;100.00
26489;BME280;14169;43.684;10.484;2022-09-09T14:20:48;101205.91;;;31.50;100.00
26489;BME280;14169;43.684;10.484;2022-09-09T14:23:13;101198.56;;;31.91;97.82
26489;BME280;14169;43.684;10.484;2022-09-09T14:25:41;101212.09;;;32.14;97.24
26489;BME280;14169;43.684;10.484;2022-09-09T14:28:08;101204.00;;;31.67;72.69